Time;durP1;ratioP1;P1;durP2;ratioP2;P2;SDS_P1;SDS_P2;PMS_P1;PMS_P2;Temp;Humidity;BMP_temperature;BMP_pressure;BME280_temperature;BME280_humidity;BME280_pressure;Samples;Min_cycle;Max_cycle;Signal;HPM_P1;HPM_P2
2022/11/27 00:01:11;;;;;;;46.03;16.45;;;-0.20;99.90;;;;;;5092681;28;20076;-51
2022/11/27 00:03:38;;;;;;;26.30;15.40;;;-0.20;99.90;;;;;;5088327;28;20024;-51
2022/11/27 00:06:04;;;;;;;26.60;15.13;;;-0.20;99.90;;;;;;5092238;28;20391;-51
2022/11/27 00:08:30;;;;;;;21.05;14.18;;;-0.20;99.90;;;;;;5092259;28;20028;-53
2022/11/27 00:11:19;;;;;;;25.95;14.85;;;-0.20;99.90;;;;;;5092243;28;20536;-53
2022/11/27 00:13:45;;;;;;;29.80;14.30;;;-0.20;99.90;;;;;;5092407;28;20399;-52
2022/11/27 00:16:12;;;;;;;30.02;15.85;;;-0.20;99.90;;;;;;5092271;28;20032;-52
2022/11/27 00:18:38;;;;;;;30.35;14.52;;;-0.30;99.90;;;;;;5092354;28;20095;-51
2022/11/27 00:21:07;;;;;;;39.88;14.82;;;-0.20;99.90;;;;;;5092298;28;20036;-51
2022/11/27 00:23:33;;;;;;;33.42;16.33;;;-0.20;99.90;;;;;;5092527;28;20027;-54
2022/11/27 00:25:59;;;;;;;26.05;15.73;;;-0.20;99.90;;;;;;5092257;28;20108;-52
2022/11/27 00:28:25;;;;;;;22.27;13.85;;;-0.30;99.90;;;;;;5092383;28;20108;-52
2022/11/27 00:30:51;;;;;;;24.38;14.80;;;-0.30;99.90;;;;;;5091938;28;20498;-52
2022/11/27 00:33:17;;;;;;;89.50;16.38;;;-0.30;99.90;;;;;;5091931;28;20028;-51
2022/11/27 00:35:42;;;;;;;51.72;16.73;;;-0.40;99.90;;;;;;5091134;28;20036;-52
2022/11/27 00:38:09;;;;;;;50.35;15.55;;;-0.40;99.90;;;;;;5091863;28;20078;-52
2022/11/27 00:40:35;;;;;;;245.73;19.73;;;-0.30;99.90;;;;;;5091789;28;20017;-53
2022/11/27 00:43:00;;;;;;;134.90;16.52;;;-0.30;99.90;;;;;;5089690;28;20035;-54
2022/11/27 00:45:27;;;;;;;38.08;14.77;;;-0.30;99.90;;;;;;5091799;28;20089;-52
2022/11/27 00:47:52;;;;;;;65.97;15.88;;;-0.30;99.90;;;;;;5091892;28;20115;-53
2022/11/27 00:50:18;;;;;;;96.90;17.58;;;-0.20;99.90;;;;;;5091927;28;20124;-53
2022/11/27 00:52:44;;;;;;;125.50;18.52;;;-0.20;99.90;;;;;;5091521;28;20024;-52
2022/11/27 00:55:09;;;;;;;182.10;19.95;;;-0.20;99.90;;;;;;5091662;28;20031;-55
2022/11/27 00:57:35;;;;;;;38.03;16.05;;;-0.10;99.90;;;;;;5091858;28;20093;-53
2022/11/27 01:00:00;;;;;;;239.32;22.80;;;0.00;99.90;;;;;;5091358;28;20127;-51
2022/11/27 01:02:26;;;;;;;96.03;14.88;;;0.10;99.90;;;;;;5091890;28;20052;-51
2022/11/27 01:04:52;;;;;;;66.57;15.30;;;0.20;99.90;;;;;;5091727;28;20056;-51
2022/11/27 01:07:17;;;;;;;64.30;15.90;;;0.30;99.90;;;;;;5091787;28;20020;-52
2022/11/27 01:09:43;;;;;;;25.95;13.48;;;0.30;99.90;;;;;;5091480;28;20089;-52
2022/11/27 01:12:09;;;;;;;18.17;12.80;;;0.40;99.90;;;;;;5091607;28;20039;-54
2022/11/27 01:14:34;;;;;;;21.73;13.60;;;0.50;99.90;;;;;;5091089;28;20039;-52
2022/11/27 01:17:00;;;;;;;19.45;13.15;;;0.60;99.90;;;;;;5091288;28;20016;-52
2022/11/27 01:19:26;;;;;;;16.52;11.85;;;0.60;99.90;;;;;;5091336;28;20028;-52
2022/11/27 01:21:52;;;;;;;15.70;11.85;;;0.70;99.90;;;;;;5091510;28;20036;-52
2022/11/27 01:24:17;;;;;;;17.27;12.15;;;0.80;99.90;;;;;;5091465;28;20038;-51
2022/11/27 01:26:43;;;;;;;14.07;10.98;;;0.80;99.90;;;;;;5091214;28;20157;-54
2022/11/27 01:29:09;;;;;;;16.50;11.60;;;0.90;99.90;;;;;;5091628;28;20031;-51
2022/11/27 01:31:35;;;;;;;18.58;12.55;;;1.00;99.90;;;;;;5091630;28;20028;-51
2022/11/27 01:34:07;;;;;;;42.65;12.63;;;1.10;99.90;;;;;;5091132;28;20058;-52
2022/11/27 01:36:34;;;;;;;37.28;12.10;;;1.20;99.90;;;;;;5071262;28;20020;-52
2022/11/27 01:39:00;;;;;;;18.85;12.00;;;1.30;99.90;;;;;;5071056;28;20166;-52
2022/11/27 01:41:39;;;;;;;57.08;11.95;;;1.30;99.90;;;;;;5075641;28;20146;-53
2022/11/27 01:44:23;;;;;;;76.45;12.75;;;1.30;99.90;;;;;;5091471;28;20021;-54
2022/11/27 01:46:49;;;;;;;;;;;1.30;99.90;;;;;;5091637;28;20099;-52
2022/11/27 01:49:23;;;;;;;83.25;14.77;;;1.30;99.90;;;;;;5090094;28;19998;-51
2022/11/27 01:51:57;;;;;;;60.67;12.75;;;1.30;99.90;;;;;;5090737;28;20035;-52
2022/11/27 01:54:25;;;;;;;186.48;17.58;;;1.30;99.90;;;;;;5091085;28;20031;-52
2022/11/27 01:56:58;;;;;;;22.50;13.98;;;1.30;99.90;;;;;;5087221;28;20028;-53
2022/11/27 01:59:24;;;;;;;104.13;17.60;;;1.40;99.90;;;;;;5091347;28;20016;-52
2022/11/27 02:01:50;;;;;;;38.38;16.02;;;1.40;99.90;;;;;;5090994;28;20031;-52
2022/11/27 02:04:19;;;;;;;84.72;16.85;;;1.40;99.90;;;;;;5090578;28;20375;-53
2022/11/27 02:06:45;;;;;;;53.90;18.20;;;1.50;99.90;;;;;;5090319;28;20050;-52
2022/11/27 02:09:11;;;;;;;75.53;15.90;;;1.50;99.90;;;;;;5090179;28;20025;-53
2022/11/27 02:12:23;;;;;;;124.18;17.60;;;1.50;99.90;;;;;;5089492;28;20102;-51
2022/11/27 02:14:49;;;;;;;119.78;17.27;;;1.50;99.90;;;;;;5089959;28;20032;-52
2022/11/27 02:17:28;;;;;;;84.45;17.33;;;1.50;99.90;;;;;;5090226;28;20023;-52
2022/11/27 02:20:31;;;;;;;157.05;19.60;;;1.50;99.90;;;;;;5090155;28;20066;-51
2022/11/27 02:23:21;;;;;;;101.72;18.05;;;1.60;99.90;;;;;;5090696;28;20527;-51
2022/11/27 02:26:02;;;;;;;198.43;19.52;;;1.50;99.90;;;;;;5091303;28;20024;-51
2022/11/27 02:29:04;;;;;;;100.40;17.98;;;1.50;99.90;;;;;;5094677;28;20050;-53
2022/11/27 02:31:52;;;;;;;77.40;16.63;;;1.60;99.90;;;;;;5094650;28;20055;-55
2022/11/27 02:34:40;;;;;;;94.85;17.02;;;1.60;99.90;;;;;;5094650;28;20117;-53
2022/11/27 02:37:25;;;;;;;113.75;17.98;;;1.70;99.90;;;;;;5094457;28;20405;-50
2022/11/27 02:40:20;;;;;;;30.27;15.50;;;1.80;99.90;;;;;;5074519;28;20052;-51
2022/11/27 02:42:57;;;;;;;65.50;15.40;;;1.90;99.90;;;;;;5074028;28;20106;-52
2022/11/27 02:45:37;;;;;;;33.55;15.32;;;1.90;99.90;;;;;;5074017;28;20028;-51
2022/11/27 02:48:05;;;;;;;25.27;14.32;;;1.90;99.90;;;;;;5073988;28;20115;-51
2022/11/27 02:50:33;;;;;;;25.77;13.63;;;1.90;99.90;;;;;;5084238;28;20179;-52
2022/11/27 02:53:02;;;;;;;101.80;16.05;;;1.90;99.90;;;;;;5094085;28;20020;-53
2022/11/27 02:55:32;;;;;;;37.67;15.00;;;1.90;99.90;;;;;;5094054;28;20027;-53
2022/11/27 02:58:00;;;;;;;43.60;13.93;;;1.90;99.90;;;;;;5093935;28;20086;-51
2022/11/27 03:00:28;;;;;;;80.95;15.25;;;2.00;99.90;;;;;;5094078;28;20028;-53
2022/11/27 03:02:59;;;;;;;123.05;16.33;;;1.90;99.90;;;;;;5093913;28;20503;-52
2022/11/27 03:05:40;;;;;;;43.08;13.23;;;1.80;99.90;;;;;;5094122;28;20519;-51
2022/11/27 03:08:21;;;;;;;107.90;13.55;;;1.90;99.90;;;;;;5092412;28;20051;-52
2022/11/27 03:11:06;;;;;;;36.15;14.32;;;1.90;99.90;;;;;;5093801;28;20032;-51
2022/11/27 03:13:39;;;;;;;46.33;11.85;;;1.90;99.90;;;;;;5092729;28;20081;-54
2022/11/27 03:16:24;;;;;;;32.22;12.15;;;2.00;99.90;;;;;;5093618;28;20123;-51
2022/11/27 03:19:14;;;;;;;25.02;12.07;;;2.00;99.90;;;;;;5086038;28;20039;-52
2022/11/27 03:21:44;;;;;;;33.75;11.10;;;2.00;99.90;;;;;;5093428;28;20052;-54
2022/11/27 03:24:11;;;;;;;88.60;12.95;;;2.00;99.90;;;;;;5093286;28;20028;-53
2022/11/27 03:26:38;;;;;;;75.97;11.27;;;1.90;99.90;;;;;;5092244;28;20356;-50
2022/11/27 03:29:09;;;;;;;61.00;11.27;;;1.90;99.90;;;;;;5091751;28;20036;-51
2022/11/27 03:31:36;;;;;;;42.80;10.10;;;1.90;99.90;;;;;;5093232;28;20027;-54
2022/11/27 03:34:02;;;;;;;29.90;9.60;;;1.90;99.90;;;;;;5092684;28;20020;-52
2022/11/27 03:36:27;;;;;;;62.75;10.60;;;1.90;99.90;;;;;;5093039;28;20036;-55
2022/11/27 03:38:54;;;;;;;125.47;11.05;;;1.90;99.90;;;;;;5091987;28;20045;-55
2022/11/27 03:41:38;;;;;;;101.47;11.45;;;1.90;99.90;;;;;;5093131;28;20032;-51
2022/11/27 03:44:29;;;;;;;70.88;11.30;;;1.90;99.90;;;;;;5081737;28;20487;-53
2022/11/27 03:47:03;;;;;;;152.82;11.68;;;1.90;99.90;;;;;;5092807;28;20027;-53
2022/11/27 03:49:35;;;;;;;147.90;11.65;;;1.80;99.90;;;;;;5093052;28;20017;-51
2022/11/27 03:52:30;;;;;;;88.90;10.95;;;1.80;99.90;;;;;;5092735;28;20024;-52
2022/11/27 03:55:14;;;;;;;78.93;11.88;;;1.80;99.90;;;;;;5092919;28;20035;-53
2022/11/27 03:57:59;;;;;;;69.40;8.93;;;1.80;99.90;;;;;;5092769;28;20047;-54
2022/11/27 04:00:29;;;;;;;178.48;11.98;;;1.80;99.90;;;;;;5091247;28;20024;-53
2022/11/27 04:02:55;;;;;;;211.55;13.40;;;1.90;99.90;;;;;;5092429;28;20111;-51
2022/11/27 04:05:20;;;;;;;80.80;10.00;;;1.80;99.90;;;;;;5092629;28;20154;-52
2022/11/27 04:07:46;;;;;;;105.57;11.60;;;1.80;99.90;;;;;;5092424;28;20036;-55
2022/11/27 04:10:12;;;;;;;209.35;13.32;;;1.90;99.90;;;;;;5092490;28;20030;-52
2022/11/27 04:12:38;;;;;;;114.45;10.82;;;1.90;99.90;;;;;;5092839;28;20479;-51
2022/11/27 04:15:05;;;;;;;161.13;12.40;;;1.90;99.90;;;;;;5090771;28;20060;-54
2022/11/27 04:17:31;;;;;;;166.93;11.73;;;1.90;99.90;;;;;;5092560;28;20464;-52
2022/11/27 04:19:57;;;;;;;244.45;15.68;;;1.90;99.90;;;;;;5092005;28;20089;-52
2022/11/27 04:22:23;;;;;;;228.50;14.23;;;1.90;99.90;;;;;;5092442;28;20481;-53
2022/11/27 04:24:49;;;;;;;131.93;12.50;;;1.90;99.90;;;;;;5092001;28;20024;-51
2022/11/27 04:27:15;;;;;;;143.40;12.32;;;1.90;99.90;;;;;;5092363;28;20066;-51
2022/11/27 04:29:41;;;;;;;235.57;14.73;;;2.00;99.90;;;;;;5092104;28;20060;-53
2022/11/27 04:32:06;;;;;;;222.75;14.63;;;2.00;99.90;;;;;;5091971;28;20028;-53
2022/11/27 04:34:32;;;;;;;79.63;11.15;;;2.00;99.90;;;;;;5074770;28;20474;-52
2022/11/27 04:36:58;;;;;;;69.22;11.57;;;2.00;99.90;;;;;;5091850;28;20088;-51
2022/11/27 04:39:23;;;;;;;99.10;11.35;;;2.00;99.90;;;;;;5092274;28;20443;-55
2022/11/27 04:41:49;;;;;;;51.10;11.32;;;2.10;99.90;;;;;;5091915;28;20027;-52
2022/11/27 04:44:15;;;;;;;258.65;16.05;;;2.10;99.90;;;;;;5092056;28;20059;-54
2022/11/27 04:46:41;;;;;;;151.35;15.57;;;2.10;99.90;;;;;;5091850;28;20059;-54
2022/11/27 04:49:08;;;;;;;34.15;10.18;;;2.10;99.90;;;;;;5091557;28;20110;-51
2022/11/27 04:51:34;;;;;;;48.15;11.45;;;2.20;99.90;;;;;;5091731;28;20028;-53
2022/11/27 04:53:59;;;;;;;33.67;10.45;;;2.20;99.90;;;;;;5090291;28;20688;-54
2022/11/27 04:56:25;;;;;;;51.70;11.00;;;2.20;99.90;;;;;;5091846;28;20048;-55
2022/11/27 04:58:51;;;;;;;35.08;10.50;;;2.20;99.90;;;;;;5091488;28;20032;-54
2022/11/27 05:01:16;;;;;;;26.92;11.30;;;2.20;99.90;;;;;;5091624;28;20026;-54
2022/11/27 05:03:42;;;;;;;28.38;11.65;;;2.10;99.90;;;;;;5091571;28;20028;-52
2022/11/27 05:06:08;;;;;;;19.50;12.13;;;2.20;99.90;;;;;;5091343;28;20024;-53
2022/11/27 05:08:34;;;;;;;46.00;11.27;;;2.10;99.90;;;;;;5091806;28;20016;-51
2022/11/27 05:11:12;;;;;;;22.30;10.82;;;2.20;99.90;;;;;;5091479;28;20047;-52
2022/11/27 05:13:38;;;;;;;47.70;10.02;;;2.20;99.90;;;;;;5091860;28;20078;-53
2022/11/27 05:16:04;;;;;;;37.20;10.77;;;2.30;99.90;;;;;;5089804;28;20032;-52
2022/11/27 05:18:30;;;;;;;26.35;11.60;;;2.20;99.90;;;;;;5091540;28;20643;-51
2022/11/27 05:21:02;;;;;;;73.50;10.82;;;2.30;99.90;;;;;;5089770;28;20048;-52
2022/11/27 05:23:29;;;;;;;53.90;13.00;;;2.30;99.90;;;;;;5091312;28;20028;-52
2022/11/27 05:25:55;;;;;;;54.45;12.77;;;2.30;99.90;;;;;;5091180;28;20032;-52
2022/11/27 05:28:22;;;;;;;59.22;11.68;;;2.30;99.90;;;;;;5091635;28;20051;-54
2022/11/27 05:30:48;;;;;;;83.13;14.77;;;2.30;99.90;;;;;;5091191;28;20515;-52
2022/11/27 05:33:15;;;;;;;64.45;14.25;;;2.30;99.90;;;;;;5091138;28;20036;-52
2022/11/27 05:35:44;;;;;;;117.55;15.32;;;2.30;99.90;;;;;;5091090;28;20111;-52
2022/11/27 05:38:11;;;;;;;84.40;13.77;;;2.30;99.90;;;;;;5091280;28;20024;-52
2022/11/27 05:40:37;;;;;;;78.57;12.50;;;2.30;99.90;;;;;;5091526;28;20024;-52
2022/11/27 05:43:03;;;;;;;108.15;15.00;;;2.30;99.90;;;;;;5090007;28;20036;-55
2022/11/27 05:45:29;;;;;;;61.45;12.48;;;2.30;99.90;;;;;;5091296;28;20448;-56
2022/11/27 05:47:55;;;;;;;75.55;14.20;;;2.30;99.90;;;;;;5091059;28;20032;-55
2022/11/27 05:50:20;;;;;;;73.03;14.02;;;2.30;99.90;;;;;;5091254;28;20028;-53
2022/11/27 05:52:46;;;;;;;154.68;15.35;;;2.30;99.90;;;;;;5091132;28;20027;-54
2022/11/27 05:55:12;;;;;;;95.78;15.88;;;2.30;99.90;;;;;;5091342;28;20077;-53
2022/11/27 05:57:38;;;;;;;88.90;15.73;;;2.30;99.90;;;;;;5091228;28;20020;-52
2022/11/27 06:00:05;;;;;;;99.85;14.50;;;2.30;99.90;;;;;;5092048;28;20591;-55
2022/11/27 06:02:31;;;;;;;54.25;12.35;;;2.30;99.90;;;;;;5095043;28;20012;-54
2022/11/27 06:04:57;;;;;;;88.57;15.90;;;2.40;99.90;;;;;;5093489;28;20093;-55
2022/11/27 06:07:23;;;;;;;148.00;15.18;;;2.40;99.90;;;;;;5094301;28;20650;-55
2022/11/27 06:09:48;;;;;;;72.72;14.40;;;2.40;99.90;;;;;;5094254;28;20024;-53
2022/11/27 06:12:14;;;;;;;59.63;13.02;;;2.40;99.90;;;;;;5095039;28;20467;-52
2022/11/27 06:14:40;;;;;;;54.90;13.52;;;2.40;99.90;;;;;;5094696;28;20479;-54
2022/11/27 06:17:06;;;;;;;40.10;14.40;;;2.40;99.90;;;;;;5092906;28;20031;-52
2022/11/27 06:19:31;;;;;;;112.72;17.02;;;2.30;99.90;;;;;;5094755;28;20040;-54
2022/11/27 06:21:57;;;;;;;131.85;15.70;;;2.30;99.90;;;;;;5094302;28;20502;-53
2022/11/27 06:24:23;;;;;;;53.40;14.73;;;2.30;99.90;;;;;;5094529;28;20081;-52
2022/11/27 06:26:48;;;;;;;44.05;13.80;;;2.30;99.90;;;;;;5094426;28;20032;-51
2022/11/27 06:29:14;;;;;;;82.70;14.73;;;2.20;99.90;;;;;;5094681;28;20020;-52
2022/11/27 06:31:40;;;;;;;41.30;13.80;;;2.20;99.90;;;;;;5094144;28;20496;-53
2022/11/27 06:34:06;;;;;;;164.82;16.65;;;2.20;99.90;;;;;;5094232;28;20047;-53
2022/11/27 06:36:37;;;;;;;99.55;15.63;;;2.20;99.90;;;;;;5094649;28;20074;-55
2022/11/27 06:39:04;;;;;;;98.55;15.57;;;2.10;99.90;;;;;;5094144;28;20016;-53
2022/11/27 06:41:31;;;;;;;60.10;13.38;;;2.10;99.90;;;;;;5094077;28;20035;-55
2022/11/27 06:43:59;;;;;;;65.32;14.50;;;2.10;99.90;;;;;;5094173;28;20023;-53
2022/11/27 06:46:26;;;;;;;48.50;13.45;;;2.10;99.90;;;;;;5094114;28;20034;-52
2022/11/27 06:48:53;;;;;;;136.68;15.25;;;2.10;99.90;;;;;;5094300;28;20032;-53
2022/11/27 06:51:21;;;;;;;73.15;12.13;;;2.10;99.90;;;;;;5094150;28;20081;-52
2022/11/27 06:53:46;;;;;;;97.63;12.20;;;2.10;99.90;;;;;;5093885;28;20020;-53
2022/11/27 06:56:15;;;;;;;227.40;16.38;;;2.10;99.90;;;;;;5093992;28;20038;-51
2022/11/27 06:58:42;;;;;;;419.00;20.33;;;2.00;99.90;;;;;;5093925;28;20028;-55
2022/11/27 07:01:14;;;;;;;163.38;13.65;;;1.90;99.90;;;;;;5093797;28;20024;-52
2022/11/27 07:03:40;;;;;;;113.10;11.52;;;2.00;99.90;;;;;;5093746;28;20016;-56
2022/11/27 07:06:08;;;;;;;238.27;15.45;;;2.00;99.90;;;;;;5092343;28;20471;-53
2022/11/27 07:08:35;;;;;;;78.22;11.10;;;2.00;99.90;;;;;;5093630;28;20031;-54
2022/11/27 07:11:05;;;;;;;156.75;13.23;;;2.00;99.90;;;;;;5093416;28;20032;-56
2022/11/27 07:13:31;;;;;;;115.97;13.15;;;2.00;99.90;;;;;;5093102;28;20032;-52
2022/11/27 07:16:00;;;;;;;86.03;12.80;;;2.00;99.90;;;;;;5092423;28;20032;-51
2022/11/27 07:18:27;;;;;;;280.30;18.90;;;2.10;99.90;;;;;;5092857;28;20020;-53
2022/11/27 07:20:53;;;;;;;325.55;18.92;;;2.10;99.90;;;;;;5092401;28;20712;-54
2022/11/27 07:23:19;;;;;;;51.30;11.68;;;2.00;99.90;;;;;;5092740;28;20032;-52
2022/11/27 07:25:44;;;;;;;272.13;17.05;;;2.00;99.90;;;;;;5092079;28;20036;-51
2022/11/27 07:28:10;;;;;;;185.32;12.57;;;2.00;99.90;;;;;;5092591;28;20024;-52
2022/11/27 07:30:36;;;;;;;263.08;15.60;;;2.00;99.90;;;;;;5092476;28;20028;-53
2022/11/27 07:33:02;;;;;;;273.63;16.73;;;2.00;99.90;;;;;;5092685;28;20028;-52
2022/11/27 07:35:27;;;;;;;132.48;12.80;;;2.00;99.90;;;;;;5093141;28;20032;-51
2022/11/27 07:37:53;;;;;;;190.07;15.30;;;2.00;99.90;;;;;;5092886;28;20085;-51
2022/11/27 07:40:18;;;;;;;150.10;13.98;;;2.10;99.90;;;;;;5093015;28;20082;-52
2022/11/27 07:42:44;;;;;;;151.13;14.20;;;2.20;99.90;;;;;;5092807;28;20024;-52
2022/11/27 07:45:10;;;;;;;111.10;13.68;;;2.20;99.90;;;;;;5093022;28;20028;-57
2022/11/27 07:47:36;;;;;;;118.38;14.50;;;2.20;99.90;;;;;;5092870;28;20039;-54
2022/11/27 07:50:02;;;;;;;191.07;16.67;;;2.20;99.90;;;;;;5080969;28;20020;-56
2022/11/27 07:52:28;;;;;;;135.75;15.80;;;2.30;99.90;;;;;;5091911;28;20073;-53
2022/11/27 07:54:54;;;;;;;119.63;15.90;;;2.30;99.90;;;;;;5091532;28;20036;-51
2022/11/27 07:57:20;;;;;;;199.50;16.88;;;2.40;99.90;;;;;;5091125;28;20028;-54
2022/11/27 07:59:45;;;;;;;136.93;14.77;;;2.50;99.90;;;;;;5091259;28;20024;-52
2022/11/27 08:02:12;;;;;;;130.15;16.15;;;2.60;99.90;;;;;;5091830;28;20051;-53
2022/11/27 08:04:38;;;;;;;76.45;14.93;;;2.60;99.90;;;;;;5092122;28;20035;-55
2022/11/27 08:07:04;;;;;;;99.15;16.80;;;2.70;99.90;;;;;;5091930;28;20028;-53
2022/11/27 08:09:29;;;;;;;82.82;16.55;;;2.70;99.90;;;;;;5092136;28;20481;-55
2022/11/27 08:11:55;;;;;;;46.05;15.27;;;2.70;99.90;;;;;;5091262;28;20038;-53
2022/11/27 08:14:21;;;;;;;41.55;14.90;;;2.70;99.90;;;;;;5091788;28;20085;-53
2022/11/27 08:16:46;;;;;;;31.58;15.82;;;2.90;99.90;;;;;;5091480;28;20035;-54
2022/11/27 08:19:12;;;;;;;28.73;14.70;;;2.80;99.90;;;;;;5092299;28;20062;-53
2022/11/27 08:21:38;;;;;;;40.55;13.98;;;2.90;99.90;;;;;;5091953;28;20044;-52
2022/11/27 08:24:04;;;;;;;35.58;14.45;;;3.00;99.90;;;;;;5091190;28;20026;-52
2022/11/27 08:26:30;;;;;;;37.63;15.38;;;3.10;99.90;;;;;;5090729;28;20035;-54
2022/11/27 08:28:56;;;;;;;31.73;14.02;;;3.10;99.90;;;;;;5092306;28;20020;-56
2022/11/27 08:31:22;;;;;;;46.88;15.93;;;3.20;99.90;;;;;;5092000;28;20107;-54
2022/11/27 08:33:48;;;;;;;25.85;14.43;;;3.20;99.90;;;;;;5092212;28;20099;-53
2022/11/27 08:36:14;;;;;;;22.50;13.63;;;3.20;99.90;;;;;;5091534;28;20043;-51
2022/11/27 08:38:39;;;;;;;36.97;15.02;;;3.10;99.90;;;;;;5091702;28;20028;-55
2022/11/27 08:41:07;;;;;;;23.73;14.48;;;3.10;99.90;;;;;;5091110;28;20333;-52
2022/11/27 08:43:33;;;;;;;21.58;13.85;;;3.20;99.90;;;;;;5092275;28;20107;-53
2022/11/27 08:46:01;;;;;;;21.05;12.45;;;3.20;99.90;;;;;;5091701;28;20024;-55
2022/11/27 08:48:27;;;;;;;17.40;12.32;;;3.40;99.90;;;;;;5091836;28;20020;-53
2022/11/27 08:50:53;;;;;;;20.95;13.50;;;3.50;99.90;;;;;;5091763;28;20047;-54
2022/11/27 08:53:18;;;;;;;24.88;14.23;;;3.50;99.90;;;;;;5091798;28;20099;-53
2022/11/27 08:55:44;;;;;;;22.90;13.65;;;3.50;99.90;;;;;;5089723;28;20096;-51
2022/11/27 08:58:10;;;;;;;23.23;13.63;;;3.50;99.90;;;;;;5090758;28;20487;-51
2022/11/27 09:00:36;;;;;;;19.30;14.10;;;3.50;99.90;;;;;;5091618;28;20035;-54
2022/11/27 09:03:02;;;;;;;68.28;47.47;;;3.50;99.90;;;;;;5091589;28;20023;-53
2022/11/27 09:05:29;;;;;;;28.00;18.30;;;3.60;99.90;;;;;;5092076;28;20020;-55
2022/11/27 09:07:55;;;;;;;26.05;18.50;;;3.70;99.90;;;;;;5071298;28;20071;-55
2022/11/27 09:10:21;;;;;;;55.22;44.13;;;3.80;99.90;;;;;;5071667;28;20040;-55
2022/11/27 09:12:48;;;;;;;23.17;14.57;;;3.80;99.90;;;;;;5071285;28;20043;-53
2022/11/27 09:15:14;;;;;;;20.45;14.32;;;3.80;99.90;;;;;;5071194;28;20202;-51
2022/11/27 09:17:39;;;;;;;35.85;20.50;;;3.80;99.90;;;;;;5071414;28;20109;-54
2022/11/27 09:20:06;;;;;;;22.88;15.35;;;3.90;99.90;;;;;;5074986;28;20036;-52
2022/11/27 09:22:33;;;;;;;22.90;18.27;;;3.90;99.90;;;;;;5091463;28;20024;-55
2022/11/27 09:24:59;;;;;;;24.98;13.88;;;3.80;99.90;;;;;;5091277;28;20035;-55
2022/11/27 09:27:26;;;;;;;20.50;13.15;;;3.80;99.90;;;;;;5091192;28;20027;-54
2022/11/27 09:29:51;;;;;;;21.63;13.30;;;3.80;99.90;;;;;;5091238;28;20028;-55
2022/11/27 09:32:17;;;;;;;19.73;15.25;;;3.70;99.90;;;;;;5091300;28;20020;-52
2022/11/27 09:34:43;;;;;;;19.55;13.50;;;3.80;99.90;;;;;;5091529;28;20032;-54
2022/11/27 09:37:09;;;;;;;17.35;13.02;;;3.80;99.90;;;;;;5095586;28;20028;-53
2022/11/27 09:39:35;;;;;;;19.50;13.27;;;4.00;99.90;;;;;;5077162;28;20031;-52
2022/11/27 09:42:03;;;;;;;18.38;12.80;;;4.00;99.90;;;;;;5095107;28;20028;-52
2022/11/27 09:44:28;;;;;;;21.98;14.38;;;4.00;99.90;;;;;;5095437;28;20072;-53
2022/11/27 09:46:58;;;;;;;17.55;12.80;;;4.00;99.90;;;;;;5095228;28;20379;-52
2022/11/27 09:49:30;;;;;;;22.67;12.50;;;4.00;99.90;;;;;;5094903;28;20027;-52
2022/11/27 09:52:04;;;;;;;17.33;12.38;;;4.10;99.90;;;;;;5095228;28;20056;-55
2022/11/27 09:54:42;;;;;;;20.77;16.10;;;4.00;99.90;;;;;;5094743;28;20119;-54
2022/11/27 09:57:15;;;;;;;21.48;16.70;;;4.00;99.90;;;;;;5094731;28;20059;-53
2022/11/27 09:59:52;;;;;;;21.60;12.63;;;4.00;99.90;;;;;;5094126;28;20211;-53
2022/11/27 10:02:29;;;;;;;21.80;13.18;;;4.00;99.90;;;;;;5093320;28;20380;-54
2022/11/27 10:04:55;;;;;;;22.42;12.48;;;4.10;99.90;;;;;;5094705;28;20514;-55
2022/11/27 10:07:27;;;;;;;27.80;16.70;;;4.00;99.90;;;;;;5094721;28;20040;-56
2022/11/27 10:10:11;;;;;;;19.65;13.05;;;4.00;99.90;;;;;;5094797;28;20020;-54
2022/11/27 10:12:55;;;;;;;20.45;13.43;;;3.90;99.90;;;;;;5093328;28;20514;-53
2022/11/27 10:15:39;;;;;;;20.48;14.85;;;3.90;99.90;;;;;;5074438;28;20511;-54
2022/11/27 10:18:37;;;;;;;18.77;12.77;;;4.00;99.90;;;;;;5086458;28;20108;-52
2022/11/27 10:21:43;;;;;;;18.00;12.60;;;4.00;99.90;;;;;;5074270;28;20514;-54
2022/11/27 10:24:12;;;;;;;19.55;13.93;;;4.10;99.90;;;;;;5092707;28;20042;-53
2022/11/27 10:26:45;;;;;;;22.40;15.82;;;4.10;99.90;;;;;;5076588;28;20099;-53
2022/11/27 10:29:26;;;;;;;43.45;24.70;;;4.10;99.90;;;;;;5093692;28;20031;-53
2022/11/27 10:32:00;;;;;;;43.35;26.15;;;4.00;99.90;;;;;;5093259;28;20057;-52
2022/11/27 10:34:45;;;;;;;25.38;16.40;;;4.10;99.90;;;;;;5090492;28;20017;-54
2022/11/27 10:37:31;;;;;;;23.25;13.85;;;4.10;99.90;;;;;;5084544;28;20024;-55
2022/11/27 10:40:06;;;;;;;25.08;14.18;;;4.10;99.90;;;;;;5075194;28;20021;-52
2022/11/27 10:43:00;;;;;;;20.80;14.38;;;4.10;99.90;;;;;;5083490;28;20077;-52
2022/11/27 10:45:34;;;;;;;21.02;14.32;;;4.20;99.90;;;;;;5074069;28;20103;-55
2022/11/27 10:48:00;;;;;;;19.02;13.75;;;4.30;99.90;;;;;;5072956;28;20357;-52
2022/11/27 10:50:25;;;;;;;20.10;14.20;;;4.20;99.90;;;;;;5073849;28;20040;-53
2022/11/27 10:53:03;;;;;;;17.42;13.23;;;4.30;99.90;;;;;;5073616;28;20037;-52
2022/11/27 10:56:07;;;;;;;17.23;13.30;;;4.30;99.90;;;;;;5073818;28;20094;-55
2022/11/27 10:58:40;;;;;;;19.05;12.18;;;4.40;99.90;;;;;;5073896;28;20017;-53
2022/11/27 11:01:09;;;;;;;19.98;13.07;;;4.20;99.90;;;;;;5073841;28;20381;-53
2022/11/27 11:03:35;;;;;;;17.58;13.30;;;4.20;99.90;;;;;;5073930;28;20029;-54
2022/11/27 11:06:07;;;;;;;23.13;14.52;;;4.10;99.90;;;;;;5079013;28;20030;-53
2022/11/27 11:08:35;;;;;;;21.63;14.50;;;4.10;99.90;;;;;;5093429;28;20032;-55
2022/11/27 11:11:04;;;;;;;19.20;14.18;;;4.10;99.90;;;;;;5093377;28;20020;-52
2022/11/27 11:13:44;;;;;;;19.42;14.35;;;4.10;99.90;;;;;;5093695;28;20489;-54
2022/11/27 11:16:10;;;;;;;20.70;13.40;;;4.00;99.90;;;;;;5093433;28;20032;-55
2022/11/27 11:18:48;;;;;;;20.33;15.00;;;4.10;99.90;;;;;;5093423;28;20036;-54
2022/11/27 11:21:22;;;;;;;19.15;14.55;;;4.30;99.90;;;;;;5093385;28;20707;-51
2022/11/27 11:23:57;;;;;;;20.65;14.75;;;4.40;99.90;;;;;;5093348;28;20036;-50
2022/11/27 11:26:22;;;;;;;27.30;17.38;;;4.50;99.90;;;;;;5093346;28;20020;-52
2022/11/27 11:28:52;;;;;;;25.67;17.05;;;4.40;99.90;;;;;;5075962;28;20036;-53
2022/11/27 11:31:20;;;;;;;25.38;18.65;;;4.40;99.90;;;;;;5054654;28;20032;-51
2022/11/27 11:33:53;;;;;;;24.73;18.92;;;4.40;99.90;;;;;;5054528;28;20059;-54
2022/11/27 11:36:19;;;;;;;;;;;4.40;99.90;;;;;;5062396;28;20579;-54
2022/11/27 11:38:46;;;;;;;30.38;19.95;;;4.30;99.90;;;;;;5062175;28;19909;-51
2022/11/27 11:41:12;;;;;;;25.75;17.77;;;4.40;99.90;;;;;;5062430;28;20029;-52
2022/11/27 11:43:38;;;;;;;24.77;18.85;;;4.30;99.90;;;;;;5061694;28;20103;-52
2022/11/27 11:46:27;;;;;;;31.23;20.60;;;4.30;99.90;;;;;;5062332;28;20037;-55
2022/11/27 11:48:56;;;;;;;28.90;19.25;;;4.30;99.90;;;;;;5062324;28;20033;-51
2022/11/27 11:51:57;;;;;;;23.92;17.58;;;4.30;99.90;;;;;;5062018;28;20032;-52
2022/11/27 11:54:53;;;;;;;24.75;15.70;;;4.30;99.90;;;;;;5061561;28;20043;-51
2022/11/27 11:57:27;;;;;;;23.98;16.35;;;4.20;99.90;;;;;;5061927;28;20115;-52
2022/11/27 12:00:02;;;;;;;24.35;17.05;;;4.20;99.90;;;;;;5061158;28;20071;-50
2022/11/27 12:02:58;;;;;;;28.20;18.33;;;4.30;99.90;;;;;;5062708;28;20029;-51
2022/11/27 12:05:33;;;;;;;23.77;17.02;;;4.20;99.90;;;;;;5061553;28;20028;-51
2022/11/27 12:08:26;;;;;;;65.13;29.50;;;4.20;99.90;;;;;;5061632;28;20024;-53
2022/11/27 12:11:15;;;;;;;44.67;33.35;;;4.20;99.90;;;;;;5061102;28;20075;-54
2022/11/27 12:13:59;;;;;;;39.55;27.92;;;4.30;99.90;;;;;;5061831;28;20036;-51
2022/11/27 12:16:44;;;;;;;33.03;20.90;;;4.40;99.90;;;;;;5063469;28;20543;-51
2022/11/27 12:19:31;;;;;;;32.58;19.95;;;4.40;99.90;;;;;;5061180;28;20530;-51
2022/11/27 12:22:22;;;;;;;25.38;17.45;;;4.40;99.90;;;;;;5063160;28;20032;-51
2022/11/27 12:25:09;;;;;;;26.88;17.00;;;4.40;99.90;;;;;;5060110;28;20046;-55
2022/11/27 12:27:58;;;;;;;25.15;16.85;;;4.40;99.90;;;;;;5060841;28;20031;-51
2022/11/27 12:30:46;;;;;;;23.45;17.27;;;4.30;99.90;;;;;;5046798;28;20132;-51
2022/11/27 12:33:25;;;;;;;23.85;15.95;;;4.30;99.90;;;;;;5062439;28;20043;-50
2022/11/27 12:36:17;;;;;;;25.08;16.50;;;4.40;99.90;;;;;;5059202;28;20431;-57
2022/11/27 12:38:52;;;;;;;27.02;16.63;;;4.50;99.90;;;;;;5073671;28;20064;-53
2022/11/27 12:41:45;;;;;;;21.27;15.18;;;4.50;99.90;;;;;;5061260;28;20032;-51
2022/11/27 12:44:24;;;;;;;23.70;15.65;;;4.50;99.90;;;;;;5059481;28;20030;-52
2022/11/27 12:47:01;;;;;;;22.98;16.60;;;4.60;99.90;;;;;;5056791;28;20488;-51
2022/11/27 12:49:42;;;;;;;29.33;15.32;;;4.60;99.90;;;;;;5058597;28;20056;-51
2022/11/27 12:52:33;;;;;;;24.10;16.10;;;4.60;99.90;;;;;;5058688;28;20078;-52
2022/11/27 12:55:11;;;;;;;44.55;23.50;;;4.60;99.90;;;;;;5058944;28;20082;-51